Time;durP1;ratioP1;P1;durP2;ratioP2;P2;SDS_P1;SDS_P2;PMS_P1;PMS_P2;Temp;Humidity;BMP_temperature;BMP_pressure;BME280_temperature;BME280_humidity;BME280_pressure;Samples;Min_cycle;Max_cycle;Signal;HPM_P1;HPM_P2
2022/09/05 00:00:13;;;;;;;4.17;3.67;;;;;;;22.37;69.44;100039.00;4995627;28;20191;-69
2022/09/05 00:02:53;;;;;;;3.37;3.27;;;;;;;22.36;69.90;100040.09;4995285;28;20198;-69
2022/09/05 00:05:42;;;;;;;3.80;3.50;;;;;;;22.36;70.29;100042.81;4995305;28;20190;-69
2022/09/05 00:08:17;;;;;;;4.07;3.73;;;;;;;22.36;69.97;100056.34;4994529;28;20186;-69
2022/09/05 00:10:51;;;;;;;4.47;3.67;;;;;;;22.34;70.56;100052.25;4995048;28;20272;-68
2022/09/05 00:13:23;;;;;;;3.90;3.70;;;;;;;22.33;70.64;100062.25;4993946;28;20187;-68
2022/09/05 00:16:06;;;;;;;3.87;3.60;;;;;;;22.35;70.71;100070.97;4995325;28;20194;-69
2022/09/05 00:18:56;;;;;;;7.97;3.43;;;;;;;22.32;70.76;100067.94;4994348;28;20186;-69
2022/09/05 00:21:39;;;;;;;5.20;3.50;;;;;;;22.24;70.90;100069.22;4975235;28;20250;-68
2022/09/05 00:24:21;;;;;;;3.57;3.37;;;;;;;22.26;71.39;100075.19;4975408;28;20254;-68
2022/09/05 00:26:55;;;;;;;3.73;3.53;;;;;;;22.23;71.00;100075.72;4974826;28;20785;-68
2022/09/05 00:29:49;;;;;;;3.90;3.47;;;;;;;22.28;71.46;100069.53;4974833;28;20270;-69
2022/09/05 00:32:26;;;;;;;4.20;3.83;;;;;;;22.23;71.38;100067.59;4975268;28;20246;-69
2022/09/05 00:35:23;;;;;;;3.57;3.23;;;;;;;22.14;71.99;100084.56;4974777;28;20214;-69
2022/09/05 00:37:52;;;;;;;3.57;3.37;;;;;;;21.95;72.85;100070.59;4974577;28;20194;-69
2022/09/05 00:40:28;;;;;;;5.10;3.40;;;;;;;22.01;73.60;100066.03;4974833;28;20203;-69
2022/09/05 00:42:58;;;;;;;3.40;3.20;;;;;;;22.02;73.31;100060.38;4974900;28;20651;-69
2022/09/05 00:45:32;;;;;;;3.47;3.30;;;;;;;22.07;72.92;100063.13;4975136;28;20203;-69
2022/09/05 00:48:07;;;;;;;4.00;3.70;;;;;;;22.09;73.18;100060.97;4975367;28;20254;-70
2022/09/05 00:50:44;;;;;;;3.60;3.40;;;;;;;22.01;73.56;100053.31;4974835;28;20744;-70
2022/09/05 00:53:17;;;;;;;3.77;2.90;;;;;;;22.04;73.46;100063.63;4974416;28;20821;-71
2022/09/05 00:55:55;;;;;;;4.13;3.83;;;;;;;21.95;74.02;100048.94;4974510;28;20231;-70
2022/09/05 00:58:55;;;;;;;4.27;3.57;;;;;;;21.86;74.42;100050.47;4974566;28;20199;-67
2022/09/05 01:01:30;;;;;;;4.87;4.00;;;;;;;21.87;74.90;100053.97;4976104;28;20199;-69
2022/09/05 01:04:10;;;;;;;3.90;3.60;;;;;;;21.87;74.54;100052.09;4977723;28;20626;-70
2022/09/05 01:06:50;;;;;;;5.03;4.23;;;;;;;21.79;74.76;100054.44;4974273;28;20187;-71
2022/09/05 01:09:33;;;;;;;3.80;3.60;;;;;;;21.71;75.52;100042.19;4974444;28;20242;-70
2022/09/05 01:12:21;;;;;;;4.00;3.70;;;;;;;21.68;74.98;100050.00;4974848;28;20633;-70
2022/09/05 01:15:08;;;;;;;4.80;4.37;;;;;;;21.63;75.63;100048.03;4974311;28;20214;-68
2022/09/05 01:17:50;;;;;;;5.57;3.60;;;;;;;21.59;75.69;100049.59;4974602;28;20282;-68
2022/09/05 01:20:32;;;;;;;4.60;4.20;;;;;;;21.44;76.25;100057.53;4986643;28;20190;-68
2022/09/05 01:23:44;;;;;;;4.07;3.70;;;;;;;21.46;76.79;100060.00;4993522;28;20245;-68
2022/09/05 01:26:40;;;;;;;4.37;3.87;;;;;;;21.52;76.31;100059.00;4981069;28;20199;-69
2022/09/05 01:29:19;;;;;;;4.23;3.93;;;;;;;21.56;76.10;100049.31;4987067;28;20201;-68
2022/09/05 01:32:02;;;;;;;4.17;3.87;;;;;;;21.61;76.44;100058.31;4993507;28;20272;-70
2022/09/05 01:34:34;;;;;;;5.63;3.57;;;;;;;21.52;76.07;100050.88;4993045;28;20191;-70
2022/09/05 01:37:10;;;;;;;4.47;4.17;;;;;;;21.59;76.08;100054.19;4993152;28;20190;-69
2022/09/05 01:39:48;;;;;;;4.50;4.20;;;;;;;21.61;75.82;100061.00;4992993;28;20186;-69
2022/09/05 01:42:32;;;;;;;3.90;3.70;;;;;;;21.63;75.86;100055.31;4993364;28;20186;-71
2022/09/05 01:45:05;;;;;;;5.20;3.77;;;;;;;21.63;75.51;100058.03;4993369;28;20245;-68
2022/09/05 01:47:46;;;;;;;6.67;3.30;;;;;;;21.69;75.57;100054.31;4993649;28;20194;-69
2022/09/05 01:50:27;;;;;;;4.00;3.60;;;;;;;21.66;75.63;100054.81;4993112;28;20211;-69
2022/09/05 01:53:24;;;;;;;4.93;3.80;;;;;;;21.67;75.94;100057.28;4993028;28;20241;-69
2022/09/05 01:56:10;;;;;;;4.07;3.77;;;;;;;21.71;75.76;100058.44;4993303;28;20205;-71
2022/09/05 01:58:49;;;;;;;4.40;4.00;;;;;;;21.75;75.46;100064.97;4993219;28;20186;-69
2022/09/05 02:01:27;;;;;;;5.60;3.70;;;;;;;21.81;74.98;100069.34;4993089;28;20257;-69
2022/09/05 02:04:08;;;;;;;3.80;3.47;;;;;;;21.82;74.46;100060.19;4992755;28;20268;-69
2022/09/05 02:06:45;;;;;;;4.87;4.17;;;;;;;21.85;74.55;100059.66;4993022;28;20716;-69
2022/09/05 02:09:35;;;;;;;4.50;4.07;;;;;;;21.85;74.25;100054.22;4993174;28;20190;-70
2022/09/05 02:12:09;;;;;;;4.63;3.47;;;;;;;21.90;73.96;100058.88;4992875;28;20226;-69
2022/09/05 02:14:41;;;;;;;4.13;3.80;;;;;;;21.90;74.41;100067.84;4993106;28;20189;-69
2022/09/05 02:17:21;;;;;;;3.63;3.33;;;;;;;21.92;74.62;100065.69;4992913;28;20194;-70
2022/09/05 02:19:53;;;;;;;4.00;3.60;;;;;;;21.92;74.40;100073.78;4993001;28;20187;-69
2022/09/05 02:22:26;;;;;;;4.50;3.13;;;;;;;21.96;74.67;100071.41;4993083;28;20187;-69
2022/09/05 02:25:02;;;;;;;4.03;3.73;;;;;;;21.98;74.75;100075.50;4992695;28;20655;-69
2022/09/05 02:27:34;;;;;;;4.07;3.73;;;;;;;21.97;74.47;100079.25;4992761;28;20230;-69
2022/09/05 02:30:08;;;;;;;4.50;4.07;;;;;;;21.98;74.52;100071.97;4992495;28;20191;-71
2022/09/05 02:32:54;;;;;;;5.50;3.97;;;;;;;22.00;75.40;100057.09;4992555;28;20199;-71
2022/09/05 02:35:30;;;;;;;4.63;4.23;;;;;;;22.04;74.58;100062.81;4992094;28;20187;-70
2022/09/05 02:38:04;;;;;;;4.97;4.57;;;;;;;22.00;74.85;100057.09;4992406;28;20187;-69
2022/09/05 02:40:39;;;;;;;4.63;4.17;;;;;;;21.77;75.66;100062.00;4992604;28;20282;-70
2022/09/05 02:43:18;;;;;;;5.73;4.00;;;;;;;21.65;76.08;100064.00;4992685;28;20620;-69
2022/09/05 02:45:56;;;;;;;4.50;4.20;;;;;;;21.46;77.02;100070.81;4992519;28;20190;-69
2022/09/05 02:48:30;;;;;;;4.23;3.80;;;;;;;21.43;77.54;100069.44;4992924;28;20190;-71
2022/09/05 02:51:08;;;;;;;5.20;4.40;;;;;;;21.18;78.78;100066.41;4992760;28;20284;-69
2022/09/05 02:53:36;;;;;;;4.50;4.10;;;;;;;21.34;78.60;100068.25;4992967;28;20273;-70
2022/09/05 02:56:27;;;;;;;4.33;4.00;;;;;;;21.21;78.53;100068.63;4992652;28;20632;-69
2022/09/05 02:59:03;;;;;;;4.57;4.30;;;;;;;21.17;79.50;100072.88;4992473;28;20249;-69
2022/09/05 03:01:48;;;;;;;5.33;4.37;;;;;;;21.30;79.08;100077.91;4992436;28;20253;-70
2022/09/05 03:04:27;;;;;;;13.30;11.90;;;;;;;21.29;78.63;100070.88;4992050;28;20190;-70
2022/09/05 03:07:07;;;;;;;6.83;5.07;;;;;;;21.36;78.87;100076.91;4992546;28;20190;-70
2022/09/05 03:09:54;;;;;;;10.30;9.50;;;;;;;21.43;78.84;100076.75;4992362;28;20183;-70
2022/09/05 03:12:53;;;;;;;7.20;5.37;;;;;;;21.39;79.10;100078.31;4992425;28;20617;-71
2022/09/05 03:15:55;;;;;;;5.57;5.10;;;;;;;21.44;78.43;100079.16;4992673;28;20182;-69
2022/09/05 03:19:04;;;;;;;5.97;5.13;;;;;;;21.40;78.98;100086.13;4992575;28;20190;-69
2022/09/05 03:22:12;;;;;;;5.83;5.30;;;;;;;21.43;79.11;100088.34;4953321;28;20672;-69
2022/09/05 03:25:14;;;;;;;6.20;5.73;;;;;;;21.14;80.34;100089.59;4972846;28;20187;-69
2022/09/05 03:28:19;;;;;;;10.40;8.90;;;;;;;21.15;80.21;100088.53;4972272;28;20277;-69
2022/09/05 03:31:05;;;;;;;6.00;5.40;;;;;;;21.19;79.99;100088.84;4972400;28;20269;-70
2022/09/05 03:33:59;;;;;;;6.53;5.90;;;;;;;21.27;80.01;100094.63;4973422;28;20270;-69
2022/09/05 03:37:05;;;;;;;9.40;8.53;;;;;;;21.36;79.50;100098.53;4972518;28;20192;-69
2022/09/05 03:39:58;;;;;;;5.53;5.13;;;;;;;21.40;79.12;100091.53;4948496;28;20663;-69
2022/09/05 03:42:57;;;;;;;5.80;5.43;;;;;;;21.37;79.08;100100.19;4972342;28;20191;-69
2022/09/05 03:45:59;;;;;;;5.00;4.60;;;;;;;21.48;79.62;100101.13;4971448;28;20199;-70
2022/09/05 03:48:43;;;;;;;6.23;5.70;;;;;;;21.48;78.29;100104.63;4957502;28;20206;-71
2022/09/05 03:51:31;;;;;;;5.87;5.47;;;;;;;21.43;78.80;100109.19;4975838;28;20226;-71
2022/09/05 03:54:27;;;;;;;5.17;4.77;;;;;;;21.43;78.90;100111.88;4975488;28;20187;-70
2022/09/05 03:57:18;;;;;;;6.53;5.97;;;;;;;21.53;78.69;100112.81;4975561;28;20191;-70
2022/09/05 04:00:09;;;;;;;5.80;5.30;;;;;;;21.58;78.22;100117.44;4975676;28;20627;-71
2022/09/05 04:02:42;;;;;;;5.70;5.20;;;;;;;21.62;77.96;100124.81;4974457;28;20291;-70
2022/09/05 04:05:15;;;;;;;6.90;6.27;;;;;;;21.67;77.67;100127.59;4975561;28;20262;-71
2022/09/05 04:07:44;;;;;;;6.63;6.03;;;;;;;21.53;77.22;100118.22;4976399;28;20183;-69
2022/09/05 04:10:26;;;;;;;7.60;6.00;;;;;;;21.31;77.82;100117.38;4974960;28;20234;-67
2022/09/05 04:13:00;;;;;;;6.67;5.60;;;;;;;21.28;78.31;100120.59;4975658;28;20629;-71
2022/09/05 04:15:36;;;;;;;8.03;6.43;;;;;;;21.33;78.27;100126.06;4975071;28;20251;-70
2022/09/05 04:18:11;;;;;;;6.87;5.80;;;;;;;21.16;78.82;100136.13;4996048;28;20198;-72
2022/09/05 04:20:46;;;;;;;6.53;5.93;;;;;;;21.15;78.59;100134.44;4993700;28;20248;-72
2022/09/05 04:23:28;;;;;;;6.97;6.17;;;;;;;21.17;78.68;100147.72;4991861;28;20650;-67
2022/09/05 04:26:09;;;;;;;5.80;5.40;;;;;;;21.06;78.44;100138.66;4993623;28;20666;-70
2022/09/05 04:28:51;;;;;;;8.37;5.90;;;;;;;20.98;78.56;100140.97;4994382;28;20225;-69
2022/09/05 04:31:30;;;;;;;7.73;5.70;;;;;;;20.67;79.69;100131.56;4993722;28;20756;-70
2022/09/05 04:34:13;;;;;;;8.03;5.73;;;;;;;20.88;79.50;100148.88;4994727;28;20186;-69
2022/09/05 04:36:41;;;;;;;9.90;6.13;;;;;;;20.99;79.04;100154.22;4994551;28;20194;-69
2022/09/05 04:39:25;;;;;;;8.77;5.20;;;;;;;21.10;78.57;100157.91;4993851;28;20602;-70
2022/09/05 04:41:56;;;;;;;6.97;6.30;;;;;;;20.43;79.77;100157.06;4994054;28;20187;-70
2022/09/05 04:44:29;;;;;;;6.43;5.37;;;;;;;20.13;81.40;100156.50;4993898;28;20650;-71
2022/09/05 04:47:02;;;;;;;5.53;5.03;;;;;;;20.35;80.07;100168.25;4993551;28;20202;-69
2022/09/05 04:49:33;;;;;;;8.23;5.33;;;;;;;20.51;79.89;100162.06;4994268;28;20249;-69
2022/09/05 04:52:24;;;;;;;5.10;4.70;;;;;;;20.53;79.95;100160.75;4993668;28;20222;-70
2022/09/05 04:54:54;;;;;;;6.23;5.03;;;;;;;20.62;79.41;100163.84;4993418;28;20195;-70
2022/09/05 04:57:28;;;;;;;4.87;4.57;;;;;;;20.67;79.63;100174.75;4994352;28;20191;-69
2022/09/05 05:00:02;;;;;;;5.20;4.40;;;;;;;20.71;79.93;100175.06;4993806;28;20197;-69
2022/09/05 05:02:36;;;;;;;5.80;4.50;;;;;;;20.79;79.23;100182.75;4993879;28;20273;-69
2022/09/05 05:05:07;;;;;;;7.20;4.83;;;;;;;20.81;78.75;100186.84;4993327;28;20664;-69
2022/09/05 05:07:49;;;;;;;7.73;4.63;;;;;;;20.80;77.94;100187.94;4994022;28;20446;-71
2022/09/05 05:10:24;;;;;;;4.73;4.30;;;;;;;20.78;78.17;100181.13;4993946;28;20261;-70
2022/09/05 05:13:05;;;;;;;8.13;5.10;;;;;;;20.53;78.63;100187.75;4993803;28;20210;-69
2022/09/05 05:15:35;;;;;;;6.13;4.33;;;;;;;20.55;78.83;100187.50;4993499;28;20186;-69
2022/09/05 05:18:15;;;;;;;4.87;4.30;;;;;;;20.68;77.48;100187.19;4993129;28;20194;-69
2022/09/05 05:20:49;;;;;;;8.50;4.40;;;;;;;20.83;77.29;100198.25;4993433;28;20182;-68
2022/09/05 05:23:18;;;;;;;4.90;4.43;;;;;;;20.74;76.69;100199.69;4993516;28;20190;-68
2022/09/05 05:25:50;;;;;;;6.07;4.37;;;;;;;20.90;76.37;100196.19;4993327;28;20194;-69
2022/09/05 05:28:26;;;;;;;7.40;4.33;;;;;;;21.05;75.68;100203.72;4993857;28;20289;-69
2022/09/05 05:30:54;;;;;;;6.60;4.37;;;;;;;21.12;74.74;100207.94;4992901;28;20248;-69
2022/09/05 05:33:28;;;;;;;6.90;4.17;;;;;;;21.12;74.49;100201.69;4993589;28;20253;-70
2022/09/05 05:35:58;;;;;;;7.57;4.20;;;;;;;21.19;74.18;100208.56;4992764;28;20249;-69
2022/09/05 05:38:31;;;;;;;4.83;4.00;;;;;;;21.17;73.86;100202.59;4993209;28;20536;-69
2022/09/05 05:41:10;;;;;;;5.00;4.67;;;;;;;21.23;73.50;100212.41;4993165;28;20187;-69
2022/09/05 05:43:38;;;;;;;7.80;4.23;;;;;;;21.27;73.43;100208.13;4992919;28;20249;-71
2022/09/05 05:46:06;;;;;;;4.77;4.47;;;;;;;21.42;72.79;100205.66;4992965;28;20264;-69
2022/09/05 05:48:38;;;;;;;5.17;4.67;;;;;;;21.52;71.83;100216.59;4993288;28;20619;-71
2022/09/05 05:51:32;;;;;;;4.30;3.90;;;;;;;21.24;72.14;100229.44;4992209;28;20230;-70
2022/09/05 05:54:06;;;;;;;4.43;4.10;;;;;;;21.39;71.36;100226.97;4986922;28;20206;-70
2022/09/05 05:56:45;;;;;;;6.10;4.37;;;;;;;21.54;70.84;100225.31;4992487;28;20701;-69
2022/09/05 05:59:31;;;;;;;3.83;3.53;;;;;;;21.63;70.66;100229.22;4992623;28;20256;-70
2022/09/05 06:02:28;;;;;;;4.03;3.73;;;;;;;21.73;70.03;100231.28;4992670;28;20187;-70
2022/09/05 06:05:20;;;;;;;4.30;3.90;;;;;;;21.73;69.54;100240.22;4975797;28;20257;-70
2022/09/05 06:07:59;;;;;;;4.77;3.97;;;;;;;21.77;69.74;100241.34;4992096;28;20654;-70
2022/09/05 06:10:53;;;;;;;4.17;3.77;;;;;;;21.90;68.56;100224.75;4991716;28;20186;-70
2022/09/05 06:13:58;;;;;;;7.63;4.00;;;;;;;22.11;68.20;100247.44;4991503;28;20187;-70
2022/09/05 06:17:10;;;;;;;7.90;3.80;;;;;;;22.26;68.03;100240.31;4992258;28;20253;-69
2022/09/05 06:20:10;;;;;;;3.73;3.43;;;;;;;22.52;66.57;100250.41;4961157;28;20194;-70
2022/09/05 06:23:15;;;;;;;3.47;3.27;;;;;;;22.61;66.90;100248.84;4991743;28;20190;-70
2022/09/05 06:26:08;;;;;;;3.83;3.40;;;;;;;22.83;65.71;100252.31;4988686;28;20720;-71
2022/09/05 06:28:49;;;;;;;4.10;3.80;;;;;;;23.16;65.66;100257.47;4992849;28;20297;-70
2022/09/05 06:31:33;;;;;;;6.70;4.10;;;;;;;23.30;64.08;100256.00;4992043;28;20214;-70
2022/09/05 06:34:21;;;;;;;4.60;4.20;;;;;;;23.65;63.23;100256.22;4992003;28;20193;-70
2022/09/05 06:36:56;;;;;;;5.40;3.40;;;;;;;23.82;62.00;100261.47;4991806;28;20196;-70
2022/09/05 06:39:43;;;;;;;3.57;3.33;;;;;;;24.07;61.22;100265.19;4997656;28;20194;-70
2022/09/05 06:42:23;;;;;;;3.83;3.17;;;;;;;24.31;59.86;100266.38;5004043;28;20892;-71
2022/09/05 06:45:06;;;;;;;3.67;3.30;;;;;;;24.47;58.85;100265.28;4991758;28;20193;-70
2022/09/05 06:47:37;;;;;;;9.20;3.87;;;;;;;24.63;59.70;100275.16;4990952;28;20192;-71
2022/09/05 06:50:12;;;;;;;6.37;3.90;;;;;;;24.99;57.42;100284.16;4990831;28;20188;-69
2022/09/05 06:53:09;;;;;;;4.23;3.07;;;;;;;25.32;57.01;100282.88;4971837;28;20217;-68
2022/09/05 06:55:53;;;;;;;3.70;3.40;;;;;;;25.49;55.68;100286.13;4972136;28;20191;-68
2022/09/05 06:58:54;;;;;;;5.40;3.57;;;;;;;25.45;55.00;100285.84;4980302;28;20233;-71
2022/09/05 07:01:26;;;;;;;21.17;4.00;;;;;;;25.52;54.66;100288.28;4972168;28;20190;-71
2022/09/05 07:04:29;;;;;;;4.97;3.00;;;;;;;25.69;54.25;100286.09;4988494;28;20186;-76
2022/09/05 07:07:15;;;;;;;4.43;3.20;;;;;;;25.79;53.92;100291.50;4982363;28;20248;-69
2022/09/05 07:09:54;;;;;;;8.53;4.00;;;;;;;26.12;53.47;100288.97;4991906;28;20194;-67
2022/09/05 07:12:26;;;;;;;3.83;3.30;;;;;;;26.80;52.11;100292.75;4991726;28;20214;-69
2022/09/05 07:15:12;;;;;;;7.33;3.50;;;;;;;27.17;50.18;100306.69;4991623;28;20187;-71
2022/09/05 07:17:53;;;;;;;5.90;2.93;;;;;;;26.68;49.65;100297.72;4991374;28;20245;-69
2022/09/05 07:20:23;;;;;;;20.20;4.40;;;;;;;26.17;51.23;100280.78;4991813;28;20576;-71
2022/09/05 07:22:56;;;;;;;3.83;3.40;;;;;;;25.73;51.79;100300.78;4994013;28;20260;-69
2022/09/05 07:25:28;;;;;;;4.87;2.97;;;;;;;25.83;53.27;100290.69;5006611;28;20199;-72
2022/09/05 07:27:58;;;;;;;3.73;3.43;;;;;;;26.27;52.55;100290.84;4993793;28;20225;-69
2022/09/05 07:30:27;;;;;;;5.27;3.03;;;;;;;26.76;51.31;100289.78;4998073;28;20276;-69
2022/09/05 07:32:56;;;;;;;4.70;3.37;;;;;;;27.26;48.11;100307.72;5008683;28;20660;-68
2022/09/05 07:35:28;;;;;;;4.07;3.77;;;;;;;27.60;47.34;100295.66;5015229;28;20202;-69
2022/09/05 07:38:04;;;;;;;42.23;6.83;;;;;;;27.87;47.18;100306.09;5015286;28;20194;-69
2022/09/05 07:40:35;;;;;;;3.00;2.80;;;;;;;27.90;47.95;100300.06;5014047;28;20202;-71
2022/09/05 07:43:07;;;;;;;4.67;3.57;;;;;;;27.74;48.01;100291.19;4994083;28;20265;-77
2022/09/05 07:45:38;;;;;;;5.27;3.77;;;;;;;27.70;48.72;100292.03;4992764;28;20222;-74
2022/09/05 07:48:10;;;;;;;6.27;4.17;;;;;;;27.65;47.61;100281.16;4986138;28;20191;-74
2022/09/05 07:50:47;;;;;;;3.67;3.47;;;;;;;27.78;47.82;100285.94;4985664;28;20202;-74
2022/09/05 07:53:16;;;;;;;4.03;3.73;;;;;;;27.73;47.79;100289.53;4984307;28;20218;-74
2022/09/05 07:55:43;;;;;;;10.60;4.00;;;;;;;27.73;47.13;100283.28;4985977;28;20698;-76
2022/09/05 07:58:16;;;;;;;19.57;4.60;;;;;;;27.81;46.01;100291.66;4985358;28;20198;-74
2022/09/05 08:00:50;;;;;;;6.27;3.50;;;;;;;27.88;46.04;100275.75;4983968;28;20195;-78
2022/09/05 08:03:22;;;;;;;3.77;3.50;;;;;;;28.33;47.43;100277.09;4986764;28;20210;-72
2022/09/05 08:05:53;;;;;;;3.40;2.97;;;;;;;28.71;45.94;100285.09;4988980;28;20260;-78
2022/09/05 08:08:23;;;;;;;7.03;3.77;;;;;;;28.83;44.18;100281.91;5000838;28;20187;-70
2022/09/05 08:10:54;;;;;;;4.00;3.60;;;;;;;29.17;43.18;100286.06;4988999;28;20210;-72
2022/09/05 08:13:26;;;;;;;12.03;4.13;;;;;;;29.23;43.16;100270.34;4996146;28;20734;-73
2022/09/05 08:15:58;;;;;;;4.90;3.40;;;;;;;29.42;42.73;100271.13;4990772;28;20574;-74
2022/09/05 08:18:35;;;;;;;7.53;3.40;;;;;;;29.56;42.65;100269.19;4986351;28;20205;-72
2022/09/05 08:21:09;;;;;;;3.47;3.23;;;;;;;29.61;42.21;100260.13;5002068;28;20198;-75
2022/09/05 08:23:50;;;;;;;9.20;3.33;;;;;;;29.60;42.00;100270.25;4999974;28;20209;-71
2022/09/05 08:26:29;;;;;;;4.03;3.40;;;;;;;29.38;42.12;100261.88;4999360;28;20864;-73
2022/09/05 08:29:03;;;;;;;3.83;3.63;;;;;;;29.18;42.22;100246.63;4998297;28;20260;-73
2022/09/05 08:31:37;;;;;;;4.00;3.70;;;;;;;29.32;42.60;100257.63;4985987;28;20207;-76
2022/09/05 08:34:08;;;;;;;6.03;3.50;;;;;;;29.30;43.39;100254.34;4985367;28;20594;-70
2022/09/05 08:36:40;;;;;;;5.60;3.60;;;;;;;29.63;43.69;100257.91;4988256;28;20210;-71
2022/09/05 08:39:09;;;;;;;6.50;3.80;;;;;;;29.72;43.79;100254.16;5000106;28;20220;-70
2022/09/05 08:41:48;;;;;;;3.67;3.47;;;;;;;30.04;41.71;100248.56;4992151;28;20316;-79
2022/09/05 08:44:19;;;;;;;5.70;5.17;;;;;;;30.16;42.75;100245.34;4986219;28;20448;-71
2022/09/05 08:46:53;;;;;;;6.53;4.70;;;;;;;30.06;42.33;100248.28;4985206;28;20245;-74
2022/09/05 08:49:37;;;;;;;4.33;3.93;;;;;;;30.34;41.94;100247.94;4987844;28;20206;-72
2022/09/05 08:52:10;;;;;;;3.33;3.23;;;;;;;30.18;41.95;100249.41;4991532;28;20214;-72
2022/09/05 08:54:49;;;;;;;5.03;4.47;;;;;;;29.91;42.86;100245.84;4994083;28;20194;-70
2022/09/05 08:57:22;;;;;;;4.07;3.80;;;;;;;29.65;42.12;100244.72;4993771;28;20190;-70
2022/09/05 09:00:00;;;;;;;4.07;3.67;;;;;;;29.33;42.86;100236.50;4993630;28;20682;-71
2022/09/05 09:02:59;;;;;;;5.03;4.53;;;;;;;29.17;43.33;100238.72;4991431;28;20202;-72
2022/09/05 09:05:46;;;;;;;5.03;4.60;;;;;;;29.26;43.50;100233.38;4984879;28;20201;-80
2022/09/05 09:08:18;;;;;;;4.67;4.37;;;;;;;29.31;41.42;100238.75;4984369;28;20187;-76
2022/09/05 09:10:53;;;;;;;3.63;3.33;;;;;;;29.37;41.42;100230.13;4988481;28;20192;-76
2022/09/05 09:13:37;;;;;;;4.20;3.50;;;;;;;29.43;39.52;100237.13;4986378;28;20214;-77
2022/09/05 09:16:09;;;;;;;4.40;4.20;;;;;;;29.59;40.25;100235.78;4986171;28;20214;-77
2022/09/05 09:19:01;;;;;;;4.10;3.70;;;;;;;29.75;39.26;100228.06;4993092;28;20203;-78
2022/09/05 09:21:36;;;;;;;4.17;3.97;;;;;;;29.71;40.38;100227.06;4989794;28;20195;-75
2022/09/05 09:24:17;;;;;;;5.37;3.83;;;;;;;29.78;41.26;100222.81;4996923;28;20608;-73
2022/09/05 09:26:51;;;;;;;4.50;4.10;;;;;;;29.98;41.66;100227.88;4984310;28;20309;-75
2022/09/05 09:29:19;;;;;;;4.30;4.10;;;;;;;30.03;41.33;100219.56;4987859;28;20287;-78
2022/09/05 09:32:03;;;;;;;9.90;4.80;;;;;;;30.06;38.95;100235.38;4990196;28;20894;-81
2022/09/05 09:34:41;;;;;;;4.20;3.80;;;;;;;29.80;40.72;100237.00;4986374;28;20877;-76
2022/09/05 09:37:49;;;;;;;5.53;3.97;;;;;;;29.42;42.53;100219.09;4986056;28;20199;-76
2022/09/05 09:40:54;;;;;;;6.67;3.97;;;;;;;29.48;40.51;100228.03;4965208;28;20245;-77
2022/09/05 09:43:26;;;;;;;5.47;4.37;;;;;;;29.28;42.98;100223.75;4904869;28;20597;-76
2022/09/05 09:46:13;;;;;;;4.77;4.30;;;;;;;29.20;42.83;100213.47;4984628;28;20259;-76
2022/09/05 09:49:09;;;;;;;5.03;3.77;;;;;;;29.58;41.06;100228.69;4986663;28;20686;-76
2022/09/05 09:51:55;;;;;;;5.23;4.40;;;;;;;29.68;40.55;100225.72;4986085;28;20194;-78
2022/09/05 09:55:18;;;;;;;5.60;3.93;;;;;;;29.85;41.97;100223.22;4992365;28;20206;-74
2022/09/05 09:58:10;;;;;;;4.53;4.13;;;;;;;29.93;42.61;100229.91;4993544;28;20256;-77
2022/09/05 10:00:49;;;;;;;10.67;6.13;;;;;;;30.14;41.69;100226.47;4987892;28;20196;-77
2022/09/05 10:03:44;;;;;;;5.97;5.43;;;;;;;30.13;41.17;100221.28;5006192;28;20205;-75
2022/09/05 10:07:00;;;;;;;16.03;7.07;;;;;;;30.33;41.59;100227.13;4985962;28;20261;-72
2022/09/05 10:09:42;;;;;;;4.83;4.60;;;;;;;30.54;41.19;100222.81;5004551;28;20244;-81
2022/09/05 10:12:35;;;;;;;4.17;3.63;;;;;;;30.69;39.15;100217.00;4997556;28;20198;-77
2022/09/05 10:15:14;;;;;;;4.30;4.10;;;;;;;30.88;37.54;100225.06;4984848;28;20198;-80
2022/09/05 10:18:21;;;;;;;3.60;3.40;;;;;;;30.95;35.92;100229.00;4998065;28;20203;-73
2022/09/05 10:21:24;;;;;;;4.90;3.33;;;;;;;31.09;35.30;100220.69;4991406;28;20681;-77
2022/09/05 10:24:41;;;;;;;3.90;3.60;;;;;;;30.85;37.30;100221.03;4979507;28;20221;-75
2022/09/05 10:27:27;;;;;;;4.10;3.70;;;;;;;30.87;37.58;100216.00;4990499;28;20688;-76
2022/09/05 10:30:10;;;;;;;3.50;3.30;;;;;;;30.92;37.13;100215.91;4985531;28;20564;-77
2022/09/05 10:32:43;;;;;;;3.33;3.13;;;;;;;30.85;37.14;100193.56;4991476;28;20215;-77
2022/09/05 10:35:24;;;;;;;6.90;3.93;;;;;;;30.65;35.85;100210.50;4992598;28;20729;-80
2022/09/05 10:37:57;;;;;;;14.40;4.10;;;;;;;30.58;36.43;100204.63;4992328;28;20218;-80
2022/09/05 10:40:27;;;;;;;44.07;6.37;;;;;;;30.55;35.25;100210.75;4992064;28;20195;-82
2022/09/05 10:43:01;;;;;;;3.63;3.10;;;;;;;30.66;37.71;100201.13;4974950;28;20733;-81
2022/09/05 10:45:38;;;;;;;4.07;3.67;;;;;;;30.76;35.52;100200.94;4992713;28;20190;-79
2022/09/05 10:48:12;;;;;;;3.13;2.93;;;;;;;30.80;34.39;100201.94;4996242;28;20731;-82
2022/09/05 10:50:43;;;;;;;3.93;3.53;;;;;;;30.82;36.27;100193.41;4982927;28;20205;-77
2022/09/05 10:53:24;;;;;;;3.93;2.70;;;;;;;30.86;34.15;100199.88;4984867;28;20203;-75
2022/09/05 10:56:04;;;;;;;3.07;2.80;;;;;;;30.77;35.79;100186.09;4985289;28;20638;-76
2022/09/05 10:59:00;;;;;;;3.33;3.13;;;;;;;30.91;35.16;100189.56;4986874;28;20274;-77
2022/09/05 11:01:33;;;;;;;3.83;3.30;;;;;;;31.07;35.61;100190.81;4990135;28;20318;-80
2022/09/05 11:04:12;;;;;;;4.53;3.30;;;;;;;31.09;34.85;100183.09;4987856;28;20632;-74
2022/09/05 11:06:53;;;;;;;4.50;3.60;;;;;;;30.56;35.21;100176.69;4987418;28;20194;-78
2022/09/05 11:09:38;;;;;;;3.83;3.40;;;;;;;30.49;36.05;100176.31;4988383;28;20182;-78
2022/09/05 11:12:14;;;;;;;3.63;3.30;;;;;;;30.60;36.88;100172.22;4991980;28;20194;-75
2022/09/05 11:14:51;;;;;;;3.30;2.80;;;;;;;30.71;33.91;100170.06;4989847;28;20310;-74
2022/09/05 11:17:29;;;;;;;3.87;3.20;;;;;;;30.34;34.08;100154.72;4988248;28;20194;-75
2022/09/05 11:20:05;;;;;;;3.33;3.03;;;;;;;29.37;35.18;100160.88;4990326;28;20274;-75
2022/09/05 11:22:37;;;;;;;6.63;3.10;;;;;;;29.01;35.67;100157.97;4986888;28;20257;-76
2022/09/05 11:25:13;;;;;;;6.33;3.30;;;;;;;29.22;36.20;100142.81;4987862;28;20199;-75
2022/09/05 11:27:42;;;;;;;3.83;3.30;;;;;;;29.26;36.50;100138.34;4987918;28;20584;-74
2022/09/05 11:30:16;;;;;;;4.30;3.50;;;;;;;28.90;37.34;100146.38;4989538;28;20233;-76
2022/09/05 11:33:14;;;;;;;3.47;3.27;;;;;;;29.14;35.94;100146.25;4988291;28;20195;-76
2022/09/05 11:35:45;;;;;;;3.93;3.37;;;;;;;29.25;35.86;100136.75;4987919;28;20195;-73
2022/09/05 11:38:42;;;;;;;8.10;3.13;;;;;;;29.27;36.48;100131.75;4994473;28;20186;-76
2022/09/05 11:41:42;;;;;;;3.50;3.20;;;;;;;29.45;34.76;100130.88;4988613;28;20203;-77
2022/09/05 11:44:36;;;;;;;3.37;3.07;;;;;;;29.58;35.26;100121.88;4988383;28;20731;-73
2022/09/05 11:47:28;;;;;;;5.13;2.80;;;;;;;29.49;34.41;100111.91;4966329;28;20206;-73
2022/09/05 11:50:24;;;;;;;3.70;3.40;;;;;;;29.64;34.51;100123.38;4989321;28;20654;-75
2022/09/05 11:53:23;;;;;;;6.50;2.77;;;;;;;29.84;34.30;100117.47;4991534;28;20281;-79
2022/09/05 11:56:16;;;;;;;2.67;2.47;;;;;;;29.72;33.93;100119.13;4982814;28;20198;-73
2022/09/05 11:59:02;;;;;;;3.27;2.73;;;;;;;29.80;33.55;100110.19;4996369;28;20207;-76
2022/09/05 12:01:40;;;;;;;4.43;2.70;;;;;;;29.97;33.41;100111.13;5013628;28;20198;-75
2022/09/05 12:04:33;;;;;;;2.40;2.30;;;;;;;30.18;33.86;100109.63;4990491;28;20260;-76
2022/09/05 12:07:16;;;;;;;2.30;2.20;;;;;;;30.05;33.72;100063.81;4990005;28;20233;-79
2022/09/05 12:10:12;;;;;;;2.60;2.50;;;;;;;30.37;33.34;100104.75;4991303;28;20198;-76
2022/09/05 12:12:52;;;;;;;2.73;2.40;;;;;;;30.32;33.76;100101.31;4985189;28;20566;-75
2022/09/05 12:15:27;;;;;;;2.50;2.20;;;;;;;30.08;34.08;100098.84;4986620;28;20604;-75
2022/09/05 12:18:11;;;;;;;3.60;2.30;;;;;;;30.07;33.90;100088.19;5003443;28;20189;-75
2022/09/05 12:20:50;;;;;;;3.47;2.53;;;;;;;30.17;34.44;100098.97;4993085;28;20210;-72
2022/09/05 12:23:27;;;;;;;2.20;2.10;;;;;;;30.08;32.91;100090.63;4989900;28;20198;-73
2022/09/05 12:26:00;;;;;;;2.60;2.40;;;;;;;29.88;33.67;100091.06;4986935;28;20198;-75
2022/09/05 12:28:36;;;;;;;2.87;2.47;;;;;;;29.83;33.50;100080.22;4990058;28;20611;-73